createdAt,value
2023-09-24T00:01:12.804Z,7.57
2023-09-24T00:04:34.558Z,10.65
2023-09-24T00:07:56.557Z,10.20
2023-09-24T00:11:18.233Z,11.70
2023-09-24T00:14:41.891Z,12.50
2023-09-24T00:18:04.695Z,9.75
2023-09-24T00:21:27.051Z,13.90
2023-09-24T00:24:49.645Z,12.90
2023-09-24T00:28:12.008Z,12.68
2023-09-24T00:31:35.254Z,12.02
2023-09-24T00:34:58.247Z,12.25
2023-09-24T00:38:20.616Z,11.23
2023-09-24T00:41:43.338Z,13.45
2023-09-24T00:45:09.174Z,12.23
2023-09-24T00:48:34.165Z,11.48
2023-09-24T00:51:56.016Z,11.55
2023-09-24T00:55:19.136Z,13.90
2023-09-24T00:58:41.418Z,12.60
2023-09-24T01:02:03.841Z,13.25
2023-09-24T01:05:27.041Z,11.80
2023-09-24T01:08:50.067Z,10.63
2023-09-24T01:12:23.344Z,11.35
2023-09-24T01:15:45.641Z,10.02
2023-09-24T01:19:08.201Z,11.23
2023-09-24T01:22:31.485Z,15.68
2023-09-24T01:25:53.238Z,16.55
2023-09-24T01:29:15.420Z,16.05
2023-09-24T01:32:37.111Z,14.65
2023-09-24T01:35:58.914Z,16.25
2023-09-24T01:39:27.295Z,12.20
2023-09-24T01:42:49.327Z,11.95
2023-09-24T01:46:14.928Z,12.73
2023-09-24T01:49:37.209Z,14.18
2023-09-24T01:52:59.889Z,15.52
2023-09-24T01:56:24.627Z,12.75
2023-09-24T01:59:46.775Z,15.38
2023-09-24T02:03:12.099Z,16.13
2023-09-24T02:06:35.893Z,17.42
2023-09-24T02:09:57.459Z,21.70
2023-09-24T02:13:22.080Z,14.32
2023-09-24T02:16:44.403Z,17.35
2023-09-24T02:20:12.512Z,14.05
2023-09-24T02:23:34.780Z,15.75
2023-09-24T02:26:57.295Z,16.98
2023-09-24T02:30:21.237Z,16.58
2023-09-24T02:33:43.237Z,17.58
2023-09-24T02:37:06.083Z,20.42
2023-09-24T02:40:29.063Z,15.80
2023-09-24T02:43:50.944Z,16.90
2023-09-24T02:47:13.955Z,16.13
2023-09-24T02:50:35.901Z,19.25
2023-09-24T02:53:57.727Z,27.30
2023-09-24T02:57:19.343Z,19.60
2023-09-24T03:00:43.988Z,15.80
2023-09-24T03:04:08.867Z,19.50
2023-09-24T03:07:30.767Z,13.75
2023-09-24T03:10:52.962Z,15.35
2023-09-24T03:14:14.835Z,16.35
2023-09-24T03:17:36.711Z,18.10
2023-09-24T03:21:00.216Z,14.07
2023-09-24T03:24:22.270Z,16.55
2023-09-24T03:27:44.037Z,17.25
2023-09-24T03:31:05.481Z,16.75
2023-09-24T03:34:27.244Z,16.00
2023-09-24T03:37:50.394Z,15.02
2023-09-24T03:41:12.284Z,16.75
2023-09-24T03:44:34.064Z,16.08
2023-09-24T03:47:56.566Z,13.05
2023-09-24T03:51:18.755Z,17.70
2023-09-24T03:54:42.130Z,12.50
2023-09-24T03:58:04.060Z,13.85
2023-09-24T04:01:25.658Z,18.67
2023-09-24T04:04:47.586Z,16.42
2023-09-24T04:08:10.064Z,17.13
2023-09-24T04:11:34.005Z,14.93
2023-09-24T04:14:56.020Z,17.35
2023-09-24T04:18:19.278Z,18.20
2023-09-24T04:21:40.948Z,15.23
2023-09-24T04:25:04.054Z,15.52
2023-09-24T04:28:27.324Z,21.13
2023-09-24T04:31:49.472Z,16.58
2023-09-24T04:35:12.677Z,17.80
2023-09-24T04:38:34.743Z,14.68
2023-09-24T04:41:56.864Z,17.02
2023-09-24T04:45:20.635Z,16.90
2023-09-24T04:48:42.669Z,13.98
2023-09-24T04:52:04.882Z,20.27
2023-09-24T04:55:27.246Z,16.17
2023-09-24T04:58:49.099Z,15.02
2023-09-24T05:02:12.553Z,14.15
2023-09-24T05:05:34.842Z,13.38
2023-09-24T05:08:57.160Z,15.68
2023-09-24T05:12:19.073Z,15.35
2023-09-24T05:15:41.186Z,15.45
2023-09-24T05:19:04.672Z,15.13
2023-09-24T05:22:28.840Z,12.95
2023-09-24T05:25:52.326Z,12.50
2023-09-24T05:29:16.366Z,15.15
2023-09-24T05:32:38.212Z,9.77
2023-09-24T05:36:01.652Z,14.60
2023-09-24T05:39:45.751Z,14.15
2023-09-24T05:43:07.276Z,15.50
2023-09-24T05:46:28.895Z,10.73
2023-09-24T05:49:50.722Z,12.35
2023-09-24T05:53:14.645Z,13.75
2023-09-24T05:56:36.203Z,12.45
2023-09-24T05:59:58.510Z,9.73
2023-09-24T06:03:20.683Z,13.13
2023-09-24T06:06:43.732Z,12.57
2023-09-24T06:10:08.189Z,10.23
2023-09-24T06:13:29.925Z,10.15
2023-09-24T06:16:51.854Z,10.18
2023-09-24T06:20:14.238Z,11.77
2023-09-24T06:23:36.453Z,8.52
2023-09-24T06:27:00.011Z,9.07
2023-09-24T06:30:22.135Z,8.98
2023-09-24T06:33:44.122Z,8.48
2023-09-24T06:37:06.154Z,7.75
2023-09-24T06:40:28.123Z,6.82
2023-09-24T06:43:51.271Z,6.38
2023-09-24T06:47:12.944Z,6.97
2023-09-24T06:50:36.191Z,8.30
2023-09-24T06:53:58.318Z,6.40
2023-09-24T06:57:22.865Z,5.57
2023-09-24T07:00:45.971Z,5.30
2023-09-24T07:04:08.180Z,7.38
2023-09-24T07:07:30.732Z,4.70
2023-09-24T07:11:27.050Z,7.75
2023-09-24T07:15:04.511Z,5.47
2023-09-24T07:18:45.501Z,4.88
2023-09-24T07:22:07.395Z,5.50
2023-09-24T07:25:28.883Z,4.20
2023-09-24T07:28:50.529Z,4.43
2023-09-24T07:32:16.037Z,3.55
2023-09-24T07:35:40.020Z,3.38
2023-09-24T07:39:17.095Z,3.72
2023-09-24T07:42:40.734Z,3.60
2023-09-24T07:46:04.635Z,4.30
2023-09-24T07:49:26.489Z,4.43
2023-09-24T07:52:49.978Z,3.22
2023-09-24T07:56:11.841Z,6.28
2023-09-24T07:59:33.577Z,16.88
2023-09-24T08:02:56.710Z,19.75
2023-09-24T08:06:19.537Z,31.23
2023-09-24T08:09:43.513Z,25.15
2023-09-24T08:13:05.742Z,18.80
2023-09-24T08:16:27.862Z,10.15
2023-09-24T08:19:50.886Z,4.97
2023-09-24T08:23:23.776Z,3.30
2023-09-24T08:26:50.082Z,4.15
2023-09-24T08:30:13.274Z,3.15
2023-09-24T08:33:35.243Z,3.33
2023-09-24T08:36:57.130Z,2.92
2023-09-24T08:40:19.440Z,2.92
2023-09-24T08:43:44.844Z,3.60
2023-09-24T08:47:07.996Z,3.22
2023-09-24T08:50:30.036Z,2.80
2023-09-24T08:53:53.036Z,2.28
2023-09-24T08:57:16.937Z,3.53
2023-09-24T09:00:40.532Z,2.75
2023-09-24T09:04:17.650Z,3.47
2023-09-24T09:07:40.959Z,1.95
2023-09-24T09:11:07.680Z,2.75
2023-09-24T09:14:38.690Z,3.65
2023-09-24T09:18:02.168Z,3.05
2023-09-24T09:21:31.442Z,3.10
2023-09-24T09:25:05.428Z,3.08
2023-09-24T09:28:28.840Z,1.88
2023-09-24T09:31:51.238Z,1.50
2023-09-24T09:35:15.406Z,2.58
2023-09-24T09:38:37.250Z,2.40
2023-09-24T09:41:59.207Z,2.25
2023-09-24T09:45:22.617Z,2.28
2023-09-24T09:48:52.961Z,2.38
2023-09-24T09:52:22.079Z,1.85
2023-09-24T09:55:44.509Z,3.08
2023-09-24T09:59:06.953Z,1.88
2023-09-24T10:02:29.812Z,2.50
2023-09-24T10:05:52.705Z,1.48
2023-09-24T10:09:41.045Z,1.42
2023-09-24T10:13:03.676Z,0.75
2023-09-24T10:16:38.265Z,0.90
2023-09-24T10:20:07.834Z,0.73
2023-09-24T10:23:37.910Z,1.23
2023-09-24T10:27:04.995Z,1.75
2023-09-24T10:30:27.250Z,1.10
2023-09-24T10:34:00.492Z,0.80
2023-09-24T10:37:22.727Z,0.65
2023-09-24T10:41:07.982Z,0.80
2023-09-24T10:44:31.036Z,2.33
2023-09-24T10:47:52.855Z,2.25
2023-09-24T10:51:19.523Z,1.58
2023-09-24T10:54:43.289Z,1.20
2023-09-24T10:58:07.162Z,1.10
2023-09-24T11:01:33.821Z,0.63
2023-09-24T11:04:55.678Z,1.77
2023-09-24T11:08:18.661Z,0.95
2023-09-24T11:11:41.505Z,1.73
2023-09-24T11:18:30.478Z,3.80
2023-09-24T11:21:52.577Z,0.93
2023-09-24T11:25:15.811Z,2.80
2023-09-24T11:28:37.734Z,3.92
2023-09-24T11:31:59.632Z,2.08
2023-09-24T11:35:26.635Z,4.07
2023-09-24T11:38:48.702Z,2.15
2023-09-24T11:42:10.866Z,1.52
2023-09-24T11:45:41.442Z,2.63
2023-09-24T11:49:03.353Z,1.45
2023-09-24T11:52:28.601Z,0.50
2023-09-24T11:55:51.157Z,2.15
2023-09-24T11:59:13.094Z,2.05
2023-09-24T12:02:34.825Z,1.13
2023-09-24T12:05:56.653Z,1.48
2023-09-24T12:09:20.066Z,0.82
2023-09-24T12:12:41.977Z,2.53
2023-09-24T12:16:04.100Z,2.97
2023-09-24T12:19:25.827Z,1.17
2023-09-24T12:22:47.642Z,3.75
2023-09-24T12:26:10.806Z,3.42
2023-09-24T12:29:32.640Z,1.92
2023-09-24T12:33:01.055Z,3.70
2023-09-24T12:39:44.337Z,0.82
2023-09-24T12:43:07.724Z,1.05
2023-09-24T12:46:31.847Z,2.15
2023-09-24T12:50:04.245Z,3.45
2023-09-24T12:53:27.410Z,2.05
2023-09-24T12:56:49.346Z,1.20
2023-09-24T13:00:13.837Z,1.73
2023-09-24T13:03:38.782Z,3.28
2023-09-24T13:07:00.552Z,1.67
2023-09-24T13:10:25.587Z,2.10
2023-09-24T13:13:48.208Z,7.78
2023-09-24T13:17:11.914Z,3.50
2023-09-24T13:20:33.556Z,3.45
2023-09-24T13:23:55.405Z,2.08
2023-09-24T13:27:17.479Z,2.40
2023-09-24T13:30:39.774Z,2.13
2023-09-24T13:34:05.247Z,1.17
2023-09-24T13:37:26.810Z,3.25
2023-09-24T13:40:48.347Z,3.03
2023-09-24T13:44:10.864Z,2.15
2023-09-24T13:47:32.822Z,12.45
2023-09-24T13:50:56.146Z,4.13
2023-09-24T13:54:18.301Z,3.63
2023-09-24T13:57:40.221Z,2.35
2023-09-24T14:01:02.381Z,3.85
2023-09-24T14:04:24.117Z,6.45
2023-09-24T14:07:47.363Z,8.00
2023-09-24T14:11:26.570Z,3.03
2023-09-24T14:14:48.356Z,4.15
2023-09-24T14:18:14.637Z,3.35
2023-09-24T14:21:37.056Z,4.00
2023-09-24T14:25:07.822Z,2.72
2023-09-24T14:28:36.748Z,3.08
2023-09-24T14:35:20.653Z,7.57
2023-09-24T14:38:50.462Z,2.67
2023-09-24T14:42:14.154Z,4.30
2023-09-24T14:45:36.125Z,2.90
2023-09-24T14:48:58.204Z,3.70
2023-09-24T14:52:20.116Z,3.28
2023-09-24T14:55:41.755Z,3.38
2023-09-24T14:59:05.038Z,3.50
2023-09-24T15:02:26.703Z,6.00
2023-09-24T15:05:48.570Z,4.22
2023-09-24T15:09:20.095Z,3.22
2023-09-24T15:12:42.209Z,3.17
2023-09-24T15:16:07.822Z,2.05
2023-09-24T15:19:29.889Z,1.75
2023-09-24T15:23:01.281Z,0.75
2023-09-24T15:26:23.383Z,2.70
2023-09-24T15:29:45.198Z,2.22
2023-09-24T15:33:08.685Z,3.75
2023-09-24T15:36:30.873Z,2.70
2023-09-24T15:39:52.749Z,1.65
2023-09-24T15:43:14.264Z,2.88
2023-09-24T15:46:36.111Z,3.13
2023-09-24T15:50:00.229Z,4.53
2023-09-24T15:53:22.117Z,4.03
2023-09-24T15:56:44.032Z,6.35
2023-09-24T16:00:47.358Z,11.27
2023-09-24T16:04:09.015Z,5.00
2023-09-24T16:07:32.194Z,3.33
2023-09-24T16:10:53.794Z,4.43
2023-09-24T16:14:15.650Z,3.63
2023-09-24T16:17:39.167Z,4.22
2023-09-24T16:21:00.966Z,4.03
2023-09-24T16:24:24.278Z,3.67
2023-09-24T16:27:46.575Z,4.30
2023-09-24T16:31:09.021Z,6.78
2023-09-24T16:34:30.950Z,4.43
2023-09-24T16:37:52.788Z,4.90
2023-09-24T16:41:17.518Z,2.92
2023-09-24T16:44:39.593Z,3.90
2023-09-24T16:48:01.624Z,5.22
2023-09-24T16:51:23.534Z,3.30
2023-09-24T16:54:45.587Z,5.90
2023-09-24T16:58:08.919Z,3.63
2023-09-24T17:01:30.519Z,3.85
2023-09-24T17:04:52.463Z,4.90
2023-09-24T17:08:14.530Z,4.90
2023-09-24T17:11:36.299Z,7.35
2023-09-24T17:14:59.312Z,4.85
2023-09-24T17:18:21.594Z,5.20
2023-09-24T17:21:43.521Z,8.18
2023-09-24T17:25:06.120Z,3.85
2023-09-24T17:28:28.957Z,4.45
2023-09-24T17:31:52.078Z,3.95
2023-09-24T17:35:14.293Z,7.05
2023-09-24T17:38:36.221Z,4.32
2023-09-24T17:41:58.456Z,3.60
2023-09-24T17:45:20.554Z,5.47
2023-09-24T17:48:44.027Z,3.38
2023-09-24T17:52:06.217Z,4.75
2023-09-24T17:55:28.238Z,3.58
2023-09-24T17:58:50.276Z,5.07
2023-09-24T18:02:12.166Z,3.53
2023-09-24T18:05:35.561Z,5.30
2023-09-24T18:08:57.363Z,3.38
2023-09-24T18:12:19.076Z,3.25
2023-09-24T18:15:40.893Z,3.60
2023-09-24T18:19:02.587Z,1.88
2023-09-24T18:22:25.932Z,4.05
2023-09-24T18:25:48.005Z,1.55
2023-09-24T18:29:10.646Z,1.63
2023-09-24T18:32:32.541Z,3.33
2023-09-24T18:35:58.413Z,4.00
2023-09-24T18:39:21.679Z,1.55
2023-09-24T18:42:45.463Z,1.92
2023-09-24T18:46:07.072Z,2.17
2023-09-24T18:49:30.057Z,1.65
2023-09-24T18:52:52.192Z,2.92
2023-09-24T18:56:15.456Z,2.40
2023-09-24T18:59:38.731Z,2.65
2023-09-24T19:03:01.091Z,4.05
2023-09-24T19:06:22.848Z,5.53
2023-09-24T19:09:44.845Z,2.70
2023-09-24T19:13:07.886Z,4.45
2023-09-24T19:16:29.788Z,4.13
2023-09-24T19:19:52.637Z,2.58
2023-09-24T19:23:14.436Z,3.53
2023-09-24T19:26:36.771Z,3.05
2023-09-24T19:30:01.016Z,3.65
2023-09-24T19:33:22.687Z,3.47
2023-09-24T19:36:44.570Z,3.40
2023-09-24T19:40:10.255Z,3.17
2023-09-24T19:43:32.332Z,4.43
2023-09-24T19:46:55.755Z,1.80
2023-09-24T19:50:17.608Z,4.45
2023-09-24T19:53:39.376Z,1.30
2023-09-24T19:57:01.279Z,3.10
2023-09-24T20:00:23.021Z,1.80
2023-09-24T20:03:46.104Z,4.35
2023-09-24T20:07:08.100Z,2.72
2023-09-24T20:10:29.710Z,3.05
2023-09-24T20:13:54.634Z,2.92
2023-09-24T20:17:16.314Z,1.60
2023-09-24T20:20:39.493Z,1.10
2023-09-24T20:24:03.569Z,1.38
2023-09-24T20:27:27.273Z,2.25
2023-09-24T20:30:50.358Z,3.15
2023-09-24T20:34:12.596Z,1.40
2023-09-24T20:37:35.759Z,2.20
2023-09-24T20:41:14.752Z,2.03
2023-09-24T20:48:04.143Z,1.38
2023-09-24T20:51:26.126Z,2.58
2023-09-24T20:54:49.421Z,3.03
2023-09-24T20:58:11.315Z,3.13
2023-09-24T21:01:33.343Z,3.72
2023-09-24T21:04:55.254Z,2.97
2023-09-24T21:08:17.711Z,1.63
2023-09-24T21:11:40.939Z,2.15
2023-09-24T21:15:03.011Z,3.60
2023-09-24T21:18:25.184Z,1.50
2023-09-24T21:21:46.867Z,1.02
2023-09-24T21:25:09.687Z,2.20
2023-09-24T21:28:33.205Z,2.95
2023-09-24T21:31:54.721Z,2.60
2023-09-24T21:35:16.431Z,3.20
2023-09-24T21:38:38.254Z,3.20
2023-09-24T21:41:59.955Z,2.88
2023-09-24T21:45:23.348Z,2.17
2023-09-24T21:48:50.312Z,2.10
2023-09-24T21:52:12.844Z,2.53
2023-09-24T21:55:34.578Z,3.38
2023-09-24T21:58:56.189Z,2.03
2023-09-24T22:02:19.597Z,2.58
2023-09-24T22:05:41.664Z,1.77
2023-09-24T22:09:03.414Z,3.17
2023-09-24T22:12:25.485Z,1.98
2023-09-24T22:15:49.269Z,1.38
2023-09-24T22:19:12.638Z,1.63
2023-09-24T22:22:34.152Z,1.42
2023-09-24T22:25:58.439Z,4.03
2023-09-24T22:29:20.226Z,1.83
2023-09-24T22:32:42.664Z,3.38
2023-09-24T22:36:09.381Z,2.42
2023-09-24T22:39:31.129Z,3.28
2023-09-24T22:42:53.133Z,2.70
2023-09-24T22:46:15.038Z,4.05
2023-09-24T22:49:37.360Z,3.08
2023-09-24T22:53:00.906Z,1.92
2023-09-24T22:56:22.749Z,2.83
2023-09-24T22:59:44.529Z,2.90
2023-09-24T23:03:07.034Z,2.17
2023-09-24T23:06:28.971Z,1.92
2023-09-24T23:09:52.376Z,1.13
2023-09-24T23:13:13.971Z,3.47
2023-09-24T23:16:36.313Z,1.35
2023-09-24T23:19:58.305Z,3.15
2023-09-24T23:23:22.206Z,7.40
2023-09-24T23:26:45.841Z,1.52
2023-09-24T23:30:09.648Z,2.50
2023-09-24T23:33:31.463Z,2.20
2023-09-24T23:36:53.709Z,2.65
2023-09-24T23:40:18.876Z,4.03
2023-09-24T23:43:42.048Z,1.48
2023-09-24T23:47:04.377Z,2.40
2023-09-24T23:50:26.828Z,1.80
2023-09-24T23:53:48.821Z,2.00
2023-09-24T23:57:10.753Z,0.77
